createdAt,value
2022-10-23T00:01:39.567Z,11.81
2022-10-23T00:04:13.132Z,11.80
2022-10-23T00:06:40.842Z,11.80
2022-10-23T00:09:10.200Z,11.80
2022-10-23T00:11:37.592Z,11.82
2022-10-23T00:14:07.048Z,11.79
2022-10-23T00:16:35.596Z,11.80
2022-10-23T00:19:03.889Z,11.81
2022-10-23T00:21:31.747Z,11.84
2022-10-23T00:23:59.543Z,11.83
2022-10-23T00:26:27.083Z,11.82
2022-10-23T00:28:54.985Z,11.83
2022-10-23T00:31:23.765Z,11.86
2022-10-23T00:33:51.877Z,11.92
2022-10-23T00:36:21.453Z,11.97
2022-10-23T00:38:50.468Z,12.04
2022-10-23T00:41:21.757Z,11.95
2022-10-23T00:44:04.372Z,12.09
2022-10-23T00:46:32.429Z,12.10
2022-10-23T00:49:01.027Z,12.15
2022-10-23T00:51:36.761Z,12.13
2022-10-23T00:54:23.975Z,12.14
2022-10-23T00:56:58.442Z,12.13
2022-10-23T00:59:26.559Z,12.07
2022-10-23T01:01:54.210Z,12.09
2022-10-23T01:04:22.863Z,12.09
2022-10-23T01:07:14.524Z,12.09
2022-10-23T01:09:53.691Z,12.05
2022-10-23T01:12:31.560Z,12.05
2022-10-23T01:14:59.184Z,12.04
2022-10-23T01:17:40.855Z,12.02
2022-10-23T01:20:23.689Z,12.02
2022-10-23T01:23:10.442Z,12.03
2022-10-23T01:25:41.780Z,12.02
2022-10-23T01:28:15.055Z,12.05
2022-10-23T01:30:44.810Z,12.10
2022-10-23T01:33:33.994Z,12.16
2022-10-23T01:36:11.239Z,12.18
2022-10-23T01:38:41.487Z,12.21
2022-10-23T01:41:15.233Z,12.25
2022-10-23T01:44:11.553Z,12.26
2022-10-23T01:46:40.144Z,12.26
2022-10-23T01:49:12.816Z,12.25
2022-10-23T01:51:44.756Z,12.29
2022-10-23T01:54:16.619Z,12.27
2022-10-23T01:56:46.976Z,12.27
2022-10-23T01:59:24.233Z,12.25
2022-10-23T02:01:56.216Z,12.24
2022-10-23T02:04:34.077Z,12.22
2022-10-23T02:07:01.948Z,12.21
2022-10-23T02:09:29.929Z,12.22
2022-10-23T02:12:22.508Z,12.26
2022-10-23T02:14:53.329Z,12.26
2022-10-23T02:17:25.712Z,12.27
2022-10-23T02:20:07.305Z,12.29
2022-10-23T02:22:42.393Z,12.30
2022-10-23T02:25:19.910Z,12.31
2022-10-23T02:27:50.932Z,12.31
2022-10-23T02:30:20.140Z,12.36
2022-10-23T02:32:51.178Z,12.39
2022-10-23T02:35:21.419Z,12.40
2022-10-23T02:37:58.934Z,12.42
2022-10-23T02:40:36.196Z,12.42
2022-10-23T02:43:19.369Z,12.42
2022-10-23T02:46:19.179Z,12.45
2022-10-23T02:49:03.952Z,12.48
2022-10-23T02:51:47.962Z,12.48
2022-10-23T02:54:24.840Z,12.47
2022-10-23T02:57:06.069Z,12.49
2022-10-23T02:59:44.031Z,12.49
2022-10-23T03:02:20.375Z,12.50
2022-10-23T03:04:48.714Z,12.49
2022-10-23T03:07:19.632Z,12.45
2022-10-23T03:09:47.300Z,12.40
2022-10-23T03:12:14.927Z,12.35
2022-10-23T03:14:42.250Z,12.33
2022-10-23T03:17:10.244Z,12.30
2022-10-23T03:19:37.944Z,12.27
2022-10-23T03:22:05.465Z,12.30
2022-10-23T03:24:32.838Z,12.32
2022-10-23T03:27:00.599Z,12.34
2022-10-23T03:29:29.404Z,12.28
2022-10-23T03:31:56.825Z,12.18
2022-10-23T03:34:24.516Z,12.14
2022-10-23T03:36:52.207Z,12.23
2022-10-23T03:39:20.636Z,12.26
2022-10-23T03:41:48.475Z,12.24
2022-10-23T03:44:16.468Z,12.25
2022-10-23T03:46:44.885Z,12.20
2022-10-23T03:49:12.631Z,12.19
2022-10-23T03:51:44.044Z,12.20
2022-10-23T03:54:11.772Z,12.20
2022-10-23T03:56:39.224Z,12.24
2022-10-23T03:59:07.950Z,12.29
2022-10-23T04:01:35.765Z,12.30
2022-10-23T04:04:03.712Z,12.32
2022-10-23T04:06:31.300Z,12.34
2022-10-23T04:08:59.236Z,12.36
2022-10-23T04:11:27.018Z,12.36
2022-10-23T04:13:54.399Z,12.37
2022-10-23T04:16:24.034Z,12.37
2022-10-23T04:18:51.897Z,12.30
2022-10-23T04:21:19.648Z,12.36
2022-10-23T04:23:47.096Z,12.37
2022-10-23T04:26:15.185Z,12.35
2022-10-23T04:28:43.000Z,12.36
2022-10-23T04:31:10.621Z,12.36
2022-10-23T04:33:40.452Z,12.37
2022-10-23T04:36:08.622Z,12.37
2022-10-23T04:38:36.025Z,12.31
2022-10-23T04:41:04.079Z,12.35
2022-10-23T04:43:31.476Z,12.34
2022-10-23T04:45:58.962Z,12.32
2022-10-23T04:48:28.476Z,12.32
2022-10-23T04:51:00.293Z,12.32
2022-10-23T04:53:29.171Z,12.32
2022-10-23T04:55:58.705Z,12.34
2022-10-23T04:58:28.957Z,12.31
2022-10-23T05:00:58.542Z,12.33
2022-10-23T05:03:26.996Z,12.32
2022-10-23T05:05:55.923Z,12.33
2022-10-23T05:08:25.031Z,12.35
2022-10-23T05:10:52.488Z,12.33
2022-10-23T05:13:20.508Z,12.31
2022-10-23T05:15:49.503Z,12.31
2022-10-23T05:18:50.979Z,12.35
2022-10-23T05:21:28.109Z,12.32
2022-10-23T05:23:55.716Z,12.36
2022-10-23T05:26:23.671Z,12.35
2022-10-23T05:28:52.500Z,12.38
2022-10-23T05:31:22.052Z,12.40
2022-10-23T05:33:50.115Z,12.40
2022-10-23T05:36:20.269Z,12.42
2022-10-23T05:38:52.687Z,12.43
2022-10-23T05:41:21.383Z,12.47
2022-10-23T05:43:48.880Z,12.47
2022-10-23T05:46:16.842Z,12.51
2022-10-23T05:48:44.965Z,12.54
2022-10-23T05:51:17.904Z,12.49
2022-10-23T05:53:46.076Z,12.56
2022-10-23T05:56:14.402Z,12.57
2022-10-23T05:58:42.832Z,12.62
2022-10-23T06:01:13.191Z,12.63
2022-10-23T06:03:41.756Z,12.67
2022-10-23T06:06:10.253Z,12.73
2022-10-23T06:08:38.869Z,12.74
2022-10-23T06:11:11.771Z,12.81
2022-10-23T06:13:42.297Z,12.74
2022-10-23T06:16:16.255Z,12.77
2022-10-23T06:18:44.684Z,12.75
2022-10-23T06:21:13.946Z,12.78
2022-10-23T06:23:42.886Z,12.81
2022-10-23T06:26:12.963Z,12.84
2022-10-23T06:28:41.420Z,12.84
2022-10-23T06:31:12.602Z,12.92
2022-10-23T06:33:40.981Z,13.02
2022-10-23T06:36:10.568Z,13.01
2022-10-23T06:38:40.563Z,13.01
2022-10-23T06:41:14.213Z,12.97
2022-10-23T06:43:42.639Z,13.05
2022-10-23T06:46:14.528Z,13.13
2022-10-23T06:48:43.531Z,13.16
2022-10-23T06:51:13.316Z,13.32
2022-10-23T06:53:41.900Z,13.34
2022-10-23T06:56:10.632Z,13.44
2022-10-23T06:58:39.095Z,13.49
2022-10-23T07:01:11.368Z,13.51
2022-10-23T07:03:39.581Z,13.64
2022-10-23T07:06:09.176Z,13.75
2022-10-23T07:08:37.283Z,13.85
2022-10-23T07:11:11.409Z,13.84
2022-10-23T07:13:39.839Z,13.85
2022-10-23T07:16:20.548Z,13.90
2022-10-23T07:18:49.883Z,14.03
2022-10-23T07:21:19.568Z,14.21
2022-10-23T07:23:47.660Z,14.39
2022-10-23T07:26:16.818Z,14.53
2022-10-23T07:28:46.713Z,14.53
2022-10-23T07:31:14.656Z,14.56
2022-10-23T07:33:43.607Z,14.58
2022-10-23T07:36:13.517Z,14.60
2022-10-23T07:38:41.435Z,14.63
2022-10-23T07:41:12.300Z,14.60
2022-10-23T07:43:40.320Z,14.51
2022-10-23T07:46:09.823Z,14.48
2022-10-23T07:48:39.137Z,14.66
2022-10-23T07:51:11.320Z,14.71
2022-10-23T07:53:40.438Z,14.72
2022-10-23T07:56:23.114Z,14.93
2022-10-23T07:58:55.773Z,15.01
2022-10-23T08:01:32.661Z,15.30
2022-10-23T08:04:01.211Z,15.43
2022-10-23T08:06:29.237Z,15.60
2022-10-23T08:08:59.925Z,15.57
2022-10-23T08:11:35.277Z,15.47
2022-10-23T08:14:04.682Z,15.34
2022-10-23T08:16:36.272Z,15.43
2022-10-23T08:19:07.475Z,15.05
2022-10-23T08:21:35.485Z,15.15
2022-10-23T08:24:03.409Z,15.01
2022-10-23T08:26:31.004Z,14.98
2022-10-23T08:29:00.475Z,15.29
2022-10-23T08:31:29.153Z,15.45
2022-10-23T08:33:57.848Z,15.53
2022-10-23T08:36:28.837Z,15.62
2022-10-23T08:38:58.141Z,15.56
2022-10-23T08:41:33.318Z,15.84
2022-10-23T08:44:28.512Z,15.80
2022-10-23T08:47:05.445Z,15.84
2022-10-23T08:49:50.081Z,16.02
2022-10-23T08:52:24.903Z,16.16
2022-10-23T08:55:14.900Z,16.12
2022-10-23T08:58:17.894Z,16.39
2022-10-23T09:00:49.652Z,16.58
2022-10-23T09:03:18.366Z,16.74
2022-10-23T09:05:48.676Z,16.82
2022-10-23T09:08:40.633Z,16.74
2022-10-23T09:11:30.120Z,16.76
2022-10-23T09:14:27.691Z,17.02
2022-10-23T09:17:07.298Z,17.03
2022-10-23T09:19:34.834Z,17.07
2022-10-23T09:22:02.962Z,17.09
2022-10-23T09:24:31.770Z,17.18
2022-10-23T09:27:00.626Z,17.35
2022-10-23T09:29:32.898Z,17.53
2022-10-23T09:32:05.941Z,17.69
2022-10-23T09:34:35.067Z,17.76
2022-10-23T09:37:17.485Z,17.86
2022-10-23T09:39:46.157Z,17.85
2022-10-23T09:42:22.205Z,17.96
2022-10-23T09:44:52.705Z,17.86
2022-10-23T09:47:23.985Z,17.82
2022-10-23T09:49:54.135Z,17.80
2022-10-23T09:52:32.115Z,18.00
2022-10-23T09:55:02.196Z,17.93
2022-10-23T09:57:43.973Z,17.94
2022-10-23T10:00:15.265Z,18.10
2022-10-23T10:02:55.137Z,17.88
2022-10-23T10:05:30.544Z,18.18
2022-10-23T10:08:01.828Z,18.35
2022-10-23T10:10:35.987Z,18.28
2022-10-23T10:13:25.584Z,18.11
2022-10-23T10:16:03.416Z,18.24
2022-10-23T10:18:42.249Z,18.07
2022-10-23T10:21:25.122Z,18.35
2022-10-23T10:24:05.863Z,18.26
2022-10-23T10:27:27.755Z,18.02
2022-10-23T10:30:05.284Z,17.74
2022-10-23T10:33:05.079Z,17.57
2022-10-23T10:35:55.533Z,17.71
2022-10-23T10:38:50.156Z,17.61
2022-10-23T10:41:45.843Z,17.55
2022-10-23T10:44:28.337Z,17.35
2022-10-23T10:47:21.208Z,17.35
2022-10-23T10:50:26.280Z,17.49
2022-10-23T10:53:07.462Z,17.44
2022-10-23T10:55:39.410Z,17.25
2022-10-23T10:58:40.078Z,17.30
2022-10-23T11:01:42.620Z,17.19
2022-10-23T11:04:29.000Z,17.24
2022-10-23T11:06:57.476Z,17.36
2022-10-23T11:09:28.487Z,17.56
2022-10-23T11:11:58.183Z,17.63
2022-10-23T11:14:28.235Z,17.73
2022-10-23T11:17:07.864Z,17.76
2022-10-23T11:19:42.528Z,17.63
2022-10-23T11:22:15.673Z,17.47
2022-10-23T11:25:05.066Z,17.54
2022-10-23T11:27:32.491Z,17.56
2022-10-23T11:30:21.549Z,17.55
2022-10-23T11:33:06.156Z,17.44
2022-10-23T11:35:52.196Z,17.61
2022-10-23T11:38:41.584Z,17.56
2022-10-23T11:41:26.618Z,17.54
2022-10-23T11:44:01.312Z,17.44
2022-10-23T11:46:38.905Z,17.43
2022-10-23T11:49:20.650Z,17.48
2022-10-23T11:51:59.929Z,17.70
2022-10-23T11:54:27.506Z,17.83
2022-10-23T11:56:55.169Z,17.81
2022-10-23T11:59:29.170Z,17.85
2022-10-23T12:02:00.707Z,17.87
2022-10-23T12:04:47.269Z,17.93
2022-10-23T12:07:52.755Z,17.95
2022-10-23T12:10:27.032Z,17.91
2022-10-23T12:13:06.043Z,18.07
2022-10-23T12:15:36.733Z,18.01
2022-10-23T12:18:17.947Z,17.98
2022-10-23T12:20:56.452Z,17.88
2022-10-23T12:23:26.680Z,17.93
2022-10-23T12:26:39.260Z,18.04
2022-10-23T12:29:31.815Z,17.83
2022-10-23T12:32:08.417Z,17.89
2022-10-23T12:35:13.797Z,17.88
2022-10-23T12:37:55.955Z,17.74
2022-10-23T12:40:29.764Z,17.79
2022-10-23T12:43:00.233Z,17.70
2022-10-23T12:45:32.444Z,17.71
2022-10-23T12:48:00.624Z,17.70
2022-10-23T12:50:32.929Z,17.75
2022-10-23T12:53:04.677Z,17.86
2022-10-23T12:55:49.845Z,17.76
2022-10-23T12:58:21.909Z,17.73
2022-10-23T13:00:55.431Z,17.73
2022-10-23T13:03:25.394Z,17.75
2022-10-23T13:05:55.645Z,17.83
2022-10-23T13:08:27.065Z,17.86
2022-10-23T13:11:01.376Z,17.94
2022-10-23T13:13:29.783Z,17.99
2022-10-23T13:15:57.301Z,17.82
2022-10-23T13:18:24.900Z,17.73
2022-10-23T13:20:52.644Z,17.66
2022-10-23T13:23:36.273Z,17.65
2022-10-23T13:26:30.697Z,17.51
2022-10-23T13:28:58.848Z,17.52
2022-10-23T13:31:33.635Z,17.46
2022-10-23T13:34:01.063Z,17.43
2022-10-23T13:36:31.546Z,17.36
2022-10-23T13:38:59.496Z,17.28
2022-10-23T13:41:29.720Z,17.30
2022-10-23T13:43:57.611Z,17.25
2022-10-23T13:46:27.992Z,17.20
2022-10-23T13:48:55.991Z,17.21
2022-10-23T13:51:27.452Z,17.14
2022-10-23T13:53:56.486Z,17.10
2022-10-23T13:56:26.299Z,17.07
2022-10-23T13:58:54.110Z,17.02
2022-10-23T14:01:32.104Z,16.98
2022-10-23T14:04:00.125Z,16.89
2022-10-23T14:06:27.577Z,16.86
2022-10-23T14:08:54.980Z,16.75
2022-10-23T14:11:23.510Z,16.75
2022-10-23T14:13:52.709Z,16.69
2022-10-23T14:16:21.416Z,16.64
2022-10-23T14:18:49.456Z,16.60
2022-10-23T14:21:20.313Z,16.54
2022-10-23T14:23:49.236Z,16.46
2022-10-23T14:26:20.769Z,16.45
2022-10-23T14:28:48.588Z,16.43
2022-10-23T14:31:17.835Z,16.37
2022-10-23T14:33:46.622Z,16.34
2022-10-23T14:36:14.095Z,16.33
2022-10-23T14:38:41.713Z,16.30
2022-10-23T14:41:11.653Z,16.28
2022-10-23T14:43:39.573Z,16.27
2022-10-23T14:46:14.767Z,16.25
2022-10-23T14:48:46.156Z,16.20
2022-10-23T14:51:22.153Z,16.22
2022-10-23T14:53:58.846Z,16.22
2022-10-23T14:56:26.944Z,16.14
2022-10-23T14:59:02.427Z,16.12
2022-10-23T15:01:45.647Z,16.10
2022-10-23T15:04:16.089Z,16.15
2022-10-23T15:06:45.053Z,16.16
2022-10-23T15:09:14.086Z,16.15
2022-10-23T15:11:42.452Z,16.15
2022-10-23T15:14:10.041Z,16.15
2022-10-23T15:16:41.527Z,16.12
2022-10-23T15:19:18.521Z,16.11
2022-10-23T15:21:47.888Z,16.11
2022-10-23T15:24:17.241Z,16.10
2022-10-23T15:26:45.056Z,16.09
2022-10-23T15:29:14.715Z,16.09
2022-10-23T15:31:45.316Z,16.08
2022-10-23T15:34:16.520Z,16.07
2022-10-23T15:36:46.793Z,16.05
2022-10-23T15:39:17.908Z,16.05
2022-10-23T15:41:46.495Z,16.04
2022-10-23T15:44:17.877Z,16.01
2022-10-23T15:46:45.679Z,15.98
2022-10-23T15:49:14.092Z,15.95
2022-10-23T15:51:42.704Z,15.93
2022-10-23T15:54:16.441Z,15.90
2022-10-23T15:56:50.151Z,15.86
2022-10-23T15:59:20.391Z,15.86
2022-10-23T16:01:49.085Z,15.82
2022-10-23T16:04:17.064Z,15.71
2022-10-23T16:06:45.644Z,15.75
2022-10-23T16:09:13.479Z,15.72
2022-10-23T16:11:42.943Z,15.68
2022-10-23T16:14:15.816Z,15.64
2022-10-23T16:16:44.349Z,15.60
2022-10-23T16:19:12.219Z,15.56
2022-10-23T16:21:41.161Z,15.51
2022-10-23T16:24:09.755Z,15.46
2022-10-23T16:26:37.579Z,15.44
2022-10-23T16:29:07.468Z,15.41
2022-10-23T16:31:35.910Z,15.41
2022-10-23T16:34:05.429Z,15.40
2022-10-23T16:36:34.422Z,15.38
2022-10-23T16:39:05.108Z,15.36
2022-10-23T16:41:43.262Z,15.34
2022-10-23T16:44:16.749Z,15.28
2022-10-23T16:46:46.341Z,15.23
2022-10-23T16:49:14.473Z,15.18
2022-10-23T16:51:42.231Z,15.14
2022-10-23T16:54:10.081Z,15.09
2022-10-23T16:56:37.872Z,15.05
2022-10-23T16:59:05.837Z,15.02
2022-10-23T17:01:33.743Z,14.92
2022-10-23T17:04:01.451Z,14.95
2022-10-23T17:06:32.117Z,14.93
2022-10-23T17:09:01.778Z,14.89
2022-10-23T17:11:32.131Z,14.86
2022-10-23T17:14:11.234Z,14.82
2022-10-23T17:16:50.889Z,14.81
2022-10-23T17:19:40.098Z,14.77
2022-10-23T17:22:10.773Z,14.76
2022-10-23T17:24:39.851Z,14.78
2022-10-23T17:27:08.077Z,14.78
2022-10-23T17:29:36.130Z,14.77
2022-10-23T17:32:03.685Z,14.79
2022-10-23T17:34:36.645Z,14.80
2022-10-23T17:37:04.576Z,14.79
2022-10-23T17:39:32.353Z,14.79
2022-10-23T17:42:00.037Z,14.75
2022-10-23T17:44:29.145Z,14.72
2022-10-23T17:46:57.350Z,14.67
2022-10-23T17:49:25.615Z,14.63
2022-10-23T17:51:56.088Z,14.61
2022-10-23T17:54:26.306Z,14.58
2022-10-23T17:56:55.104Z,14.56
2022-10-23T17:59:23.707Z,14.54
2022-10-23T18:01:51.254Z,14.52
2022-10-23T18:04:21.003Z,14.49
2022-10-23T18:06:53.404Z,14.48
2022-10-23T18:09:22.990Z,14.44
2022-10-23T18:11:51.621Z,14.40
2022-10-23T18:14:21.938Z,14.32
2022-10-23T18:16:50.753Z,14.31
2022-10-23T18:19:19.178Z,14.20
2022-10-23T18:21:47.889Z,14.23
2022-10-23T18:24:16.171Z,14.21
2022-10-23T18:26:44.622Z,14.19
2022-10-23T18:29:13.410Z,14.17
2022-10-23T18:31:42.517Z,14.16
2022-10-23T18:34:22.153Z,14.14
2022-10-23T18:36:51.711Z,14.14
2022-10-23T18:39:22.603Z,14.14
2022-10-23T18:41:53.577Z,14.09
2022-10-23T18:44:22.692Z,14.06
2022-10-23T18:46:50.994Z,13.99
2022-10-23T18:49:20.020Z,13.95
2022-10-23T18:51:49.707Z,13.89
2022-10-23T18:54:20.937Z,13.83
2022-10-23T18:56:49.090Z,13.81
2022-10-23T18:59:20.135Z,13.80
2022-10-23T19:01:49.164Z,13.81
2022-10-23T19:04:18.411Z,13.79
2022-10-23T19:06:48.679Z,13.77
2022-10-23T19:09:16.841Z,13.77
2022-10-23T19:11:45.502Z,13.75
2022-10-23T19:14:13.160Z,13.74
2022-10-23T19:17:04.543Z,13.70
2022-10-23T19:19:39.612Z,13.66
2022-10-23T19:22:08.544Z,13.63
2022-10-23T19:25:05.420Z,13.58
2022-10-23T19:27:33.278Z,13.54
2022-10-23T19:30:03.401Z,13.52
2022-10-23T19:32:31.054Z,13.49
2022-10-23T19:34:59.797Z,13.46
2022-10-23T19:37:27.752Z,13.43
2022-10-23T19:39:55.824Z,13.42
2022-10-23T19:42:23.284Z,13.40
2022-10-23T19:44:51.290Z,13.36
2022-10-23T19:47:18.644Z,13.33
2022-10-23T19:49:46.268Z,13.31
2022-10-23T19:52:14.261Z,13.28
2022-10-23T19:54:42.040Z,13.23
2022-10-23T19:57:09.940Z,13.24
2022-10-23T19:59:37.943Z,13.24
2022-10-23T20:02:05.724Z,13.23
2022-10-23T20:04:34.788Z,13.22
2022-10-23T20:07:02.321Z,13.21
2022-10-23T20:09:30.975Z,13.19
2022-10-23T20:12:00.499Z,13.15
2022-10-23T20:14:29.092Z,13.11
2022-10-23T20:16:57.119Z,13.07
2022-10-23T20:19:24.989Z,13.05
2022-10-23T20:21:52.432Z,13.04
2022-10-23T20:24:21.071Z,13.02
2022-10-23T20:26:52.326Z,12.98
2022-10-23T20:29:21.314Z,12.97
2022-10-23T20:31:49.191Z,12.98
2022-10-23T20:34:17.285Z,12.94
2022-10-23T20:36:47.339Z,12.95
2022-10-23T20:39:21.342Z,12.95
2022-10-23T20:41:48.891Z,12.95
2022-10-23T20:46:50.265Z,12.93
2022-10-23T20:49:19.129Z,12.93
2022-10-23T20:51:54.819Z,12.89
2022-10-23T20:54:25.166Z,12.91
2022-10-23T20:56:52.765Z,12.89
2022-10-23T20:59:20.311Z,12.89
2022-10-23T21:01:51.107Z,12.92
2022-10-23T21:04:21.640Z,12.93
2022-10-23T21:07:11.066Z,12.96
2022-10-23T21:09:40.098Z,12.98
2022-10-23T21:12:08.438Z,12.97
2022-10-23T21:14:36.347Z,13.00
2022-10-23T21:17:03.968Z,12.99
2022-10-23T21:19:31.706Z,13.02
2022-10-23T21:22:00.169Z,13.05
2022-10-23T21:24:27.711Z,13.06
2022-10-23T21:26:55.447Z,13.06
2022-10-23T21:29:22.882Z,13.10
2022-10-23T21:32:01.404Z,13.11
2022-10-23T21:34:29.222Z,13.12
2022-10-23T21:37:13.904Z,13.13
2022-10-23T21:39:43.416Z,13.14
2022-10-23T21:42:12.729Z,13.13
2022-10-23T21:44:40.401Z,13.14
2022-10-23T21:47:08.344Z,13.13
2022-10-23T21:49:35.756Z,13.15
2022-10-23T21:52:04.332Z,13.16
2022-10-23T21:54:32.046Z,13.17
2022-10-23T21:56:59.371Z,13.21
2022-10-23T21:59:30.002Z,13.21
2022-10-23T22:01:59.409Z,13.24
2022-10-23T22:04:27.235Z,13.26
2022-10-23T22:06:55.249Z,13.28
2022-10-23T22:09:23.061Z,13.29
2022-10-23T22:11:54.562Z,13.27
2022-10-23T22:14:22.754Z,13.33
2022-10-23T22:16:50.160Z,13.34
2022-10-23T22:19:19.357Z,13.36
2022-10-23T22:21:47.919Z,13.37
2022-10-23T22:24:16.081Z,13.36
2022-10-23T22:26:46.950Z,13.35
2022-10-23T22:29:17.072Z,13.35
2022-10-23T22:31:48.813Z,13.34
2022-10-23T22:37:11.847Z,13.30
2022-10-23T22:39:39.709Z,13.17
2022-10-23T22:42:07.414Z,13.27
2022-10-23T22:44:35.036Z,13.29
2022-10-23T22:47:02.551Z,13.28
2022-10-23T22:49:29.973Z,13.30
2022-10-23T22:51:57.715Z,13.32
2022-10-23T22:54:25.202Z,13.35
2022-10-23T22:56:52.675Z,13.36
2022-10-23T22:59:20.448Z,13.40
2022-10-23T23:01:48.975Z,13.41
2022-10-23T23:07:11.526Z,13.44
2022-10-23T23:09:43.511Z,13.46
2022-10-23T23:12:12.896Z,13.47
2022-10-23T23:14:41.626Z,13.50
2022-10-23T23:17:09.610Z,13.51
2022-10-23T23:19:37.790Z,13.52
2022-10-23T23:22:05.275Z,13.52
2022-10-23T23:24:32.931Z,13.54
2022-10-23T23:27:00.629Z,13.56
2022-10-23T23:29:29.478Z,13.58
2022-10-23T23:31:57.270Z,13.57
2022-10-23T23:34:25.215Z,13.59
2022-10-23T23:36:52.609Z,13.58
2022-10-23T23:39:20.023Z,13.60
2022-10-23T23:41:47.763Z,13.62
2022-10-23T23:44:15.197Z,13.64
2022-10-23T23:46:42.674Z,13.63
2022-10-23T23:49:10.324Z,13.65
2022-10-23T23:51:37.893Z,13.66
2022-10-23T23:54:05.387Z,13.64
2022-10-23T23:56:33.195Z,13.67
2022-10-23T23:59:00.631Z,13.67
